Time;durP1;ratioP1;P1;durP2;ratioP2;P2;SDS_P1;SDS_P2;PMS_P1;PMS_P2;Temp;Humidity;BMP_temperature;BMP_pressure;BME280_temperature;BME280_humidity;BME280_pressure;Samples;Min_cycle;Max_cycle;Signal;HPM_P1;HPM_P2
2021/08/05 00:00:33;;;;;;;10.90;7.50;;;;;-128.00;-1.00;13.51;83.85;100259.55;96565;1178;81474;-59
2021/08/05 00:02:59;;;;;;;11.80;8.40;;;;;-128.00;-1.00;13.46;83.92;100253.08;96913;1176;65023;-59
2021/08/05 00:05:11;;;;;;;9.20;8.10;;;;;-128.00;-1.00;13.44;83.86;100256.02;96637;1176;67703;-62
2021/08/05 00:07:20;;;;;;;11.70;7.60;;;;;-128.00;-1.00;13.42;83.87;100249.98;96792;1176;85604;-63
2021/08/05 00:09:32;;;;;;;8.10;7.30;;;;;-128.00;-1.00;13.42;83.91;100258.13;96800;1176;75204;-59
2021/08/05 00:11:41;;;;;;;9.60;7.80;;;;;-128.00;-1.00;13.44;83.85;100255.19;96754;1176;80878;-59
2021/08/05 00:13:50;;;;;;;8.10;7.30;;;;;-128.00;-1.00;13.44;84.04;100258.73;96936;1177;66121;-60
2021/08/05 00:15:59;;;;;;;10.70;7.10;;;;;-128.00;-1.00;13.44;83.97;100253.31;96734;1176;67968;-60
2021/08/05 00:18:09;;;;;;;11.40;7.00;;;;;-128.00;-1.00;13.41;84.05;100256.44;96791;1176;84819;-60
2021/08/05 00:20:19;;;;;;;9.80;6.20;;;;;-128.00;-1.00;13.35;83.96;100254.56;96758;1176;74577;-59
2021/08/05 00:22:28;;;;;;;7.90;6.50;;;;;-128.00;-1.00;13.29;83.96;100255.44;96691;1176;79982;-58
2021/08/05 00:24:37;;;;;;;8.40;6.30;;;;;-128.00;-1.00;13.24;84.06;100247.06;96738;1176;67267;-58
2021/08/05 00:26:49;;;;;;;10.20;6.10;;;;;-128.00;-1.00;13.19;83.77;100249.58;96827;1176;69087;-59
2021/08/05 00:28:59;;;;;;;9.60;6.20;;;;;-128.00;-1.00;13.16;83.86;100249.19;96931;1176;85282;-58
2021/08/05 00:31:08;;;;;;;8.00;5.90;;;;;-128.00;-1.00;13.12;84.08;100250.63;96643;1177;74482;-62
2021/08/05 00:33:17;;;;;;;10.90;6.20;;;;;-128.00;-1.00;13.09;83.83;100246.47;96779;1176;80489;-62
2021/08/05 00:35:27;;;;;;;7.40;6.10;;;;;-128.00;-1.00;13.08;83.96;100242.07;96571;1177;65523;-62
2021/08/05 00:37:36;;;;;;;10.30;6.30;;;;;-128.00;-1.00;13.07;84.01;100245.84;96795;1177;67682;-63
2021/08/05 00:39:45;;;;;;;9.00;5.90;;;;;-128.00;-1.00;13.02;83.97;100238.28;96762;1176;85916;-59
2021/08/05 00:41:54;;;;;;;8.30;5.50;;;;;-128.00;-1.00;12.98;84.10;100236.21;96775;1176;73907;-59
2021/08/05 00:44:03;;;;;;;7.60;5.40;;;;;-128.00;-1.00;12.94;84.14;100235.78;96794;1176;80690;-59
2021/08/05 00:46:12;;;;;;;9.10;6.10;;;;;-128.00;-1.00;12.93;84.15;100238.72;96647;1177;66824;-59
2021/08/05 00:48:24;;;;;;;7.40;6.30;;;;;-128.00;-1.00;12.92;84.11;100237.88;96817;1176;67754;-59
2021/08/05 00:50:34;;;;;;;7.60;5.60;;;;;-128.00;-1.00;12.91;84.10;100230.77;96711;1176;85635;-62
2021/08/05 00:52:47;;;;;;;9.00;5.70;;;;;-128.00;-1.00;12.91;84.20;100225.35;96759;1177;74653;-62
2021/08/05 00:54:56;;;;;;;8.20;5.60;;;;;-128.00;-1.00;12.91;84.01;100227.26;96738;1176;81336;-62
2021/08/05 00:57:07;;;;;;;9.30;4.90;;;;;-128.00;-1.00;12.87;84.26;100225.98;96594;1177;67539;-61
2021/08/05 00:59:16;;;;;;;7.70;5.60;;;;;-128.00;-1.00;12.83;84.34;100228.27;96773;1176;69147;-61
2021/08/05 01:01:35;;;;;;;9.70;5.30;;;;;-128.00;-1.00;12.80;84.11;100227.88;96787;1175;84869;-62
2021/08/05 01:03:52;;;;;;;7.10;5.00;;;;;-128.00;-1.00;12.72;84.14;100231.59;96638;1177;75241;-63
2021/08/05 01:06:16;;;;;;;8.60;5.70;;;;;-128.00;-1.00;12.70;83.99;100227.43;96663;1177;81067;-62
2021/08/05 01:08:29;;;;;;;;;;;;;-128.00;-1.00;12.70;84.23;100222.01;96823;1176;67158;-62
2021/08/05 01:10:49;;;;;;;8.30;5.10;;;;;-128.00;-1.00;12.70;84.34;100225.56;96777;1176;70278;-62
2021/08/05 01:13:14;;;;;;;9.30;5.20;;;;;-128.00;-1.00;12.68;84.44;100218.69;96813;1176;85485;-62
2021/08/05 01:15:27;;;;;;;9.20;5.30;;;;;-128.00;-1.00;12.65;84.45;100224.52;96736;1176;74146;-58
2021/08/05 01:17:48;;;;;;;6.50;5.00;;;;;-128.00;-1.00;12.61;84.29;100217.86;96652;1177;79681;-58
2021/08/05 01:20:01;;;;;;;9.80;5.20;;;;;-128.00;-1.00;12.59;84.21;100220.75;96778;1175;66997;-61
2021/08/05 01:22:25;;;;;;;9.60;5.00;;;;;-128.00;-1.00;12.54;84.36;100216.99;96799;1176;69289;-63
2021/08/05 01:24:42;;;;;;;7.00;6.00;;;;;-128.00;-1.00;12.48;84.75;100212.39;96766;1176;85714;-59
2021/08/05 01:27:05;;;;;;;9.00;5.60;;;;;-128.00;-1.00;12.49;84.80;100219.49;96629;1177;74389;-59
2021/08/05 01:29:15;;;;;;;7.70;4.90;;;;;-128.00;-1.00;12.50;84.43;100216.56;96879;1177;82028;-59
2021/08/05 01:31:27;;;;;;;10.10;5.50;;;;;-128.00;-1.00;12.49;84.33;100219.49;96778;1176;65766;-59
2021/08/05 01:33:37;;;;;;;6.30;4.20;;;;;-128.00;-1.00;12.44;84.46;100217.41;96811;1176;70512;-59
2021/08/05 01:35:50;;;;;;;9.90;4.70;;;;;-128.00;-1.00;12.38;84.44;100219.06;96751;1176;85945;-62
2021/08/05 01:38:01;;;;;;;6.20;4.70;;;;;-128.00;-1.00;12.36;84.55;100210.28;96771;1176;75509;-62
2021/08/05 01:40:14;;;;;;;7.50;4.90;;;;;-128.00;-1.00;12.35;84.29;100205.09;96667;1176;80656;-59
2021/08/05 01:42:24;;;;;;;6.00;4.60;;;;;-128.00;-1.00;12.33;84.71;100199.86;96627;1177;67613;-59
2021/08/05 01:44:35;;;;;;;7.40;4.80;;;;;-128.00;-1.00;12.34;84.53;100209.67;96764;1176;70483;-59
2021/08/05 01:46:45;;;;;;;8.40;5.20;;;;;-128.00;-1.00;12.34;84.63;100208.83;96762;1176;86066;-58
2021/08/05 01:49:02;;;;;;;7.50;5.00;;;;;-128.00;-1.00;12.33;84.72;100199.05;96811;1176;75394;-59
2021/08/05 01:51:12;;;;;;;7.30;4.90;;;;;-128.00;-1.00;12.33;84.70;100204.47;96775;1176;82407;-63
2021/08/05 01:53:22;;;;;;;6.80;4.30;;;;;-128.00;-1.00;12.33;84.62;100199.86;96752;1176;68102;-62
2021/08/05 01:55:34;;;;;;;6.10;4.70;;;;;-128.00;-1.00;12.34;84.80;100206.12;96792;1176;68994;-58
2021/08/05 01:57:44;;;;;;;8.60;5.10;;;;;-128.00;-1.00;12.36;84.64;100204.06;96933;1176;84501;-59
2021/08/05 01:59:52;;;;;;;10.10;5.10;;;;;-128.00;-1.00;12.34;84.66;100204.25;96787;1176;74546;-63
2021/08/05 02:02:02;;;;;;;7.00;4.40;;;;;-128.00;-1.00;12.34;84.62;100206.95;96826;1176;81118;-63
2021/08/05 02:04:25;;;;;;;9.20;5.00;;;;;-128.00;-1.00;12.33;84.59;100212.59;96642;1177;66898;-58
2021/08/05 02:06:47;;;;;;;8.60;4.30;;;;;-128.00;-1.00;12.29;84.60;100206.75;96682;1176;67935;-59
2021/08/05 02:09:03;;;;;;;6.80;4.20;;;;;-128.00;-1.00;12.27;84.71;100208.83;96817;1176;86349;-58
2021/08/05 02:11:13;;;;;;;8.00;4.60;;;;;-128.00;-1.00;12.26;84.57;100203.60;96768;1176;73576;-61
2021/08/05 02:13:30;;;;;;;7.20;4.50;;;;;-128.00;-1.00;12.24;84.46;100209.23;96644;1177;81640;-61
2021/08/05 02:15:46;;;;;;;11.80;4.70;;;;;-128.00;-1.00;12.22;84.75;100203.16;96660;1177;65712;-59
2021/08/05 02:17:56;;;;;;;8.80;4.30;;;;;-128.00;-1.00;12.19;84.70;100208.18;96767;1176;68605;-60
2021/08/05 02:20:08;;;;;;;8.40;4.70;;;;;-128.00;-1.00;12.15;84.82;100213.16;96574;1177;85644;-58
2021/08/05 02:22:21;;;;;;;6.30;4.20;;;;;-128.00;-1.00;12.13;84.71;100215.25;96792;1176;74884;-59
2021/08/05 02:24:31;;;;;;;7.60;4.20;;;;;-128.00;-1.00;12.10;84.60;100209.39;96727;1176;80735;-62
2021/08/05 02:26:43;;;;;;;6.50;4.40;;;;;-128.00;-1.00;12.06;84.78;100213.56;96773;1176;66870;-62
2021/08/05 02:29:01;;;;;;;6.10;4.40;;;;;-128.00;-1.00;12.01;84.87;100216.86;96959;1177;68390;-62
2021/08/05 02:31:13;;;;;;;10.20;4.30;;;;;-128.00;-1.00;11.97;84.82;100210.20;96680;1176;85126;-63
2021/08/05 02:33:24;;;;;;;9.50;4.50;;;;;-128.00;-1.00;11.96;84.70;100219.34;96656;1177;76119;-61
2021/08/05 02:35:36;;;;;;;6.00;4.20;;;;;-128.00;-1.00;11.96;84.70;100213.09;96651;1177;82744;-62
2021/08/05 02:37:45;;;;;;;6.30;4.20;;;;;-128.00;-1.00;11.95;84.73;100217.66;96713;1177;65552;-63
2021/08/05 02:39:54;;;;;;;5.80;4.00;;;;;-128.00;-1.00;11.90;84.77;100219.31;96873;1177;69516;-62
2021/08/05 02:42:04;;;;;;;6.80;4.40;;;;;-128.00;-1.00;11.86;84.71;100227.02;96910;1176;86110;-63
2021/08/05 02:44:14;;;;;;;7.50;4.30;;;;;-128.00;-1.00;11.84;84.87;100221.79;96674;1176;73995;-59
2021/08/05 02:46:23;;;;;;;7.10;4.60;;;;;-128.00;-1.00;11.84;85.04;100221.79;96667;1177;81631;-59
2021/08/05 02:48:35;;;;;;;6.30;4.40;;;;;-128.00;-1.00;11.88;85.03;100226.80;96762;1176;66517;-60
2021/08/05 02:50:47;;;;;;;8.10;4.60;;;;;-128.00;-1.00;11.89;84.88;100223.08;96641;1177;68150;-60
2021/08/05 02:52:57;;;;;;;7.70;5.30;;;;;-128.00;-1.00;11.89;84.94;100220.36;96811;1176;85930;-59
2021/08/05 02:55:10;;;;;;;6.50;4.40;;;;;-128.00;-1.00;11.88;85.12;100219.52;96732;1176;74132;-62
2021/08/05 02:57:20;;;;;;;8.10;4.40;;;;;-128.00;-1.00;11.91;85.11;100218.28;96820;1175;80105;-63
2021/08/05 02:59:31;;;;;;;7.90;4.60;;;;;-128.00;-1.00;11.94;85.07;100215.17;96788;1176;67734;-60
2021/08/05 03:01:42;;;;;;;7.00;4.40;;;;;-128.00;-1.00;11.96;85.22;100213.09;96772;1176;68369;-59
2021/08/05 03:03:58;;;;;;;8.10;4.90;;;;;-128.00;-1.00;11.97;85.05;100212.06;96796;1176;85817;-59
2021/08/05 03:06:09;;;;;;;8.80;4.50;;;;;-128.00;-1.00;11.98;85.08;100211.84;96782;1177;76569;-59
2021/08/05 03:08:18;;;;;;;7.50;4.60;;;;;-128.00;-1.00;11.99;85.26;100207.27;96802;1176;81193;-58
2021/08/05 03:10:27;;;;;;;7.50;4.60;;;;;-128.00;-1.00;12.02;85.18;100205.00;96769;1176;67660;-59
2021/08/05 03:12:37;;;;;;;8.00;5.50;;;;;-128.00;-1.00;12.05;85.01;100210.02;96812;1176;68207;-61
2021/08/05 03:14:46;;;;;;;7.10;4.20;;;;;-128.00;-1.00;12.06;84.95;100203.55;96624;1177;86062;-60
2021/08/05 03:16:55;;;;;;;7.40;4.30;;;;;-128.00;-1.00;12.05;85.13;100204.60;96661;1176;75247;-63
2021/08/05 03:19:04;;;;;;;6.00;4.10;;;;;-128.00;-1.00;12.03;85.07;100203.14;96803;1176;81969;-62
2021/08/05 03:21:14;;;;;;;6.00;4.00;;;;;-128.00;-1.00;12.02;85.03;100196.05;96654;1177;68185;-61
2021/08/05 03:23:23;;;;;;;6.50;4.20;;;;;-128.00;-1.00;12.03;84.83;100201.23;96660;1177;70225;-63
2021/08/05 03:25:32;;;;;;;9.30;4.50;;;;;-128.00;-1.00;12.06;84.98;100194.61;96710;1176;86032;-63
2021/08/05 03:27:41;;;;;;;7.70;4.70;;;;;-128.00;-1.00;12.09;84.92;100197.72;96671;1177;73625;-62
2021/08/05 03:29:53;;;;;;;9.00;5.40;;;;;-128.00;-1.00;12.07;85.05;100193.55;96725;1176;80181;-62
2021/08/05 03:32:02;;;;;;;11.30;6.30;;;;;-128.00;-1.00;12.09;85.01;100194.17;96591;1177;68075;-61
2021/08/05 03:34:11;;;;;;;13.30;6.10;;;;;-128.00;-1.00;12.06;85.22;100190.01;96681;1177;69646;-60
2021/08/05 03:36:20;;;;;;;10.60;5.80;;;;;-128.00;-1.00;12.08;85.12;100185.25;96660;1176;85632;-59
2021/08/05 03:38:30;;;;;;;10.60;6.00;;;;;-128.00;-1.00;12.13;85.17;100181.91;96719;1176;74909;-59
2021/08/05 03:40:39;;;;;;;10.80;5.70;;;;;-128.00;-1.00;12.23;85.29;100179.63;96757;1176;82268;-60
2021/08/05 03:42:48;;;;;;;11.60;6.10;;;;;-128.00;-1.00;12.29;85.40;100181.53;96645;1177;66227;-59
2021/08/05 03:44:57;;;;;;;9.70;5.70;;;;;-128.00;-1.00;12.40;85.56;100187.18;96625;1177;69594;-62
2021/08/05 03:47:06;;;;;;;9.80;6.00;;;;;-128.00;-1.00;12.57;85.76;100187.62;96784;1175;86285;-62
2021/08/05 03:49:16;;;;;;;10.00;5.70;;;;;-128.00;-1.00;12.78;85.69;100175.72;96653;1177;74908;-60
2021/08/05 03:51:25;;;;;;;9.60;6.20;;;;;-128.00;-1.00;12.96;86.03;100176.75;96710;1176;81505;-60
2021/08/05 03:53:35;;;;;;;11.10;7.80;;;;;-128.00;-1.00;13.16;86.04;100176.76;96660;1177;65271;-59
2021/08/05 03:55:44;;;;;;;9.80;8.10;;;;;-128.00;-1.00;13.41;86.27;100176.91;96663;1177;68927;-59
2021/08/05 03:57:53;;;;;;;15.20;9.00;;;;;-128.00;-1.00;13.67;86.39;100173.29;96794;1176;86339;-60
2021/08/05 04:00:02;;;;;;;12.50;8.70;;;;;-128.00;-1.00;13.91;86.16;100172.55;96678;1177;74570;-63
2021/08/05 04:02:11;;;;;;;13.30;8.50;;;;;-128.00;-1.00;14.10;86.31;100177.88;96783;1177;80376;-62
2021/08/05 04:04:20;;;;;;;13.80;10.00;;;;;-128.00;-1.00;14.29;86.21;100175.25;96781;1177;66380;-60
2021/08/05 04:06:29;;;;;;;15.70;9.80;;;;;-128.00;-1.00;14.45;86.12;100185.66;96759;1176;69723;-58
2021/08/05 04:08:41;;;;;;;13.50;10.00;;;;;-128.00;-1.00;14.51;86.18;100172.00;96667;1177;85698;-59
2021/08/05 04:10:53;;;;;;;14.00;10.00;;;;;-128.00;-1.00;14.73;86.08;100183.33;96760;1176;75033;-60
2021/08/05 04:13:03;;;;;;;14.30;10.90;;;;;-128.00;-1.00;15.15;86.16;100178.99;96768;1176;81376;-59
2021/08/05 04:15:15;;;;;;;12.70;11.10;;;;;-128.00;-1.00;15.33;85.79;100173.56;96757;1176;66934;-59
2021/08/05 04:17:24;;;;;;;14.70;10.70;;;;;-128.00;-1.00;15.31;85.60;100172.96;96854;1176;68370;-60
2021/08/05 04:19:33;;;;;;;14.50;11.20;;;;;-128.00;-1.00;15.31;85.54;100172.96;96653;1178;86157;-62
2021/08/05 04:21:45;;;;;;;13.50;10.60;;;;;-128.00;-1.00;15.33;85.48;100179.00;96708;1176;74709;-62
2021/08/05 04:23:54;;;;;;;14.70;11.60;;;;;-128.00;-1.00;15.38;85.26;100178.34;96776;1176;81955;-62
2021/08/05 04:26:06;;;;;;;15.40;12.20;;;;;-128.00;-1.00;15.40;85.31;100173.50;96639;1177;65779;-62
2021/08/05 04:28:15;;;;;;;20.90;13.90;;;;;-128.00;-1.00;15.39;85.11;100169.94;96806;1176;68699;-62
2021/08/05 04:30:25;;;;;;;22.90;15.10;;;;;-128.00;-1.00;15.37;84.96;100169.34;96583;1177;85760;-59
2021/08/05 04:32:34;;;;;;;26.50;15.70;;;;;-128.00;-1.00;15.44;85.14;100172.00;96804;1176;75320;-59
2021/08/05 04:34:43;;;;;;;29.00;17.70;;;;;-128.00;-1.00;15.42;85.13;100172.22;96748;1176;81710;-59
2021/08/05 04:36:52;;;;;;;29.90;15.90;;;;;-128.00;-1.00;15.44;85.21;100174.73;96616;1177;67284;-59
2021/08/05 04:39:05;;;;;;;29.60;18.20;;;;;-128.00;-1.00;15.47;85.23;100180.56;96686;1176;69632;-60
2021/08/05 04:41:14;;;;;;;19.90;13.10;;;;;-128.00;-1.00;15.48;84.98;100178.67;96732;1176;86315;-59
2021/08/05 04:43:22;;;;;;;18.50;11.20;;;;;-128.00;-1.00;15.53;85.05;100171.49;96778;1176;74945;-59
2021/08/05 04:45:32;;;;;;;11.30;9.30;;;;;-128.00;-1.00;15.51;85.07;100173.63;96717;1176;81261;-62
2021/08/05 04:47:56;;;;;;;9.80;7.70;;;;;-128.00;-1.00;15.58;84.93;100171.64;96766;1176;66907;-62
2021/08/05 04:50:07;;;;;;;10.30;8.10;;;;;-128.00;-1.00;15.55;85.03;100171.25;96828;1176;68494;-61
2021/08/05 04:52:16;;;;;;;10.10;8.20;;;;;-128.00;-1.00;15.57;84.72;100170.00;96673;1177;86302;-59
2021/08/05 04:54:26;;;;;;;9.90;8.30;;;;;-128.00;-1.00;15.64;84.60;100173.46;96793;1176;75150;-59
2021/08/05 04:56:35;;;;;;;11.50;9.30;;;;;-128.00;-1.00;15.73;84.81;100173.98;96630;1177;81420;-60
2021/08/05 04:58:44;;;;;;;10.90;8.70;;;;;-128.00;-1.00;15.80;84.43;100174.73;96813;1176;67285;-58
2021/08/05 05:00:54;;;;;;;10.20;9.00;;;;;-128.00;-1.00;15.92;84.46;100178.36;96600;1177;67714;-59
2021/08/05 05:03:04;;;;;;;17.90;9.90;;;;;-128.00;-1.00;15.98;84.38;100182.05;96772;1175;86169;-60
2021/08/05 05:05:13;;;;;;;11.10;9.90;;;;;-128.00;-1.00;16.05;84.55;100178.17;96721;1176;74720;-63
2021/08/05 05:07:22;;;;;;;12.40;10.10;;;;;-128.00;-1.00;16.20;84.46;100180.50;96762;1177;80995;-62
2021/08/05 05:09:31;;;;;;;10.60;9.30;;;;;-128.00;-1.00;16.33;84.20;100185.75;96676;1176;67429;-61
2021/08/05 05:11:44;;;;;;;10.10;8.60;;;;;-128.00;-1.00;16.47;84.07;100185.34;96816;1175;69540;-60
2021/08/05 05:13:53;;;;;;;9.50;8.60;;;;;-128.00;-1.00;16.55;83.85;100183.36;96793;1176;86984;-59
2021/08/05 05:16:02;;;;;;;10.30;9.30;;;;;-128.00;-1.00;16.64;83.77;100177.35;96797;1176;73865;-62
2021/08/05 05:18:12;;;;;;;9.60;8.70;;;;;-128.00;-1.00;16.70;83.64;100170.94;96895;1177;82319;-62
2021/08/05 05:20:22;;;;;;;10.40;8.00;;;;;-128.00;-1.00;16.75;83.54;100170.25;96720;1175;67573;-63
2021/08/05 05:22:31;;;;;;;9.50;8.40;;;;;-128.00;-1.00;16.65;83.24;100167.24;96808;1176;69264;-62
2021/08/05 05:24:43;;;;;;;11.90;8.80;;;;;-128.00;-1.00;16.61;83.21;100179.70;96777;1176;86141;-62
2021/08/05 05:26:52;;;;;;;10.80;8.70;;;;;-128.00;-1.00;16.58;83.27;100171.98;96852;1176;74589;-62
2021/08/05 05:29:07;;;;;;;10.20;8.70;;;;;-128.00;-1.00;16.57;83.09;100165.70;96805;1176;83093;-62
2021/08/05 05:31:16;;;;;;;12.20;9.00;;;;;-128.00;-1.00;16.62;83.16;100171.27;96703;1176;68917;-58
2021/08/05 05:33:25;;;;;;;8.90;8.10;;;;;-128.00;-1.00;16.79;83.00;100174.15;96823;1176;70091;-59
2021/08/05 05:35:35;;;;;;;10.50;9.30;;;;;-128.00;-1.00;16.84;82.73;100172.38;96647;1177;85928;-61
2021/08/05 05:37:46;;;;;;;13.20;8.90;;;;;-128.00;-1.00;16.89;82.80;100164.31;96958;1176;75435;-62
2021/08/05 05:39:59;;;;;;;10.00;8.60;;;;;-128.00;-1.00;16.90;82.75;100165.98;96729;1176;81852;-64
2021/08/05 05:42:09;;;;;;;11.40;9.90;;;;;-128.00;-1.00;16.96;82.68;100161.48;96674;1175;64854;-64
2021/08/05 05:44:18;;;;;;;10.90;8.90;;;;;-128.00;-1.00;17.08;82.52;100162.33;96828;1176;68304;-65
2021/08/05 05:46:27;;;;;;;10.20;9.20;;;;;-128.00;-1.00;17.19;82.53;100161.50;96564;1184;85504;-63
2021/08/05 05:48:36;;;;;;;10.70;9.60;;;;;-128.00;-1.00;17.38;82.24;100163.03;96922;1177;75967;-63
2021/08/05 05:50:48;;;;;;;10.30;9.30;;;;;-128.00;-1.00;17.54;82.20;100158.75;96794;1176;80606;-63
2021/08/05 05:52:57;;;;;;;11.90;9.90;;;;;-128.00;-1.00;17.69;82.26;100161.79;96704;1176;65652;-60
2021/08/05 05:55:08;;;;;;;10.60;9.60;;;;;-128.00;-1.00;17.68;81.89;100157.42;96741;1176;69725;-59
2021/08/05 05:57:17;;;;;;;11.10;9.20;;;;;-128.00;-1.00;17.89;81.76;100158.65;96755;1176;85672;-63
2021/08/05 05:59:26;;;;;;;10.80;9.80;;;;;-128.00;-1.00;18.01;81.32;100162.19;96617;1177;74976;-64
2021/08/05 06:01:36;;;;;;;11.00;9.80;;;;;-128.00;-1.00;17.96;81.09;100159.36;96893;1176;80536;-63
2021/08/05 06:03:44;;;;;;;12.00;9.90;;;;;-128.00;-1.00;18.15;80.99;100160.83;96673;1175;65570;-63
2021/08/05 06:05:57;;;;;;;13.30;10.70;;;;;-128.00;-1.00;18.12;80.57;100156.67;96649;1176;67645;-64
2021/08/05 06:08:06;;;;;;;11.40;10.20;;;;;-128.00;-1.00;18.29;80.69;100153.98;96587;1177;87086;-65
2021/08/05 06:10:19;;;;;;;10.80;9.70;;;;;-128.00;-1.00;18.49;80.23;100148.89;96577;1177;76395;-66
2021/08/05 06:12:28;;;;;;;10.90;9.80;;;;;-128.00;-1.00;18.95;80.10;100146.93;96800;1176;80976;-64
2021/08/05 06:14:38;;;;;;;11.90;10.60;;;;;-128.00;-1.00;19.22;79.55;100148.73;96572;1176;65613;-62
2021/08/05 06:16:47;;;;;;;12.40;11.20;;;;;-128.00;-1.00;19.37;79.17;100135.23;96604;1177;69532;-63
2021/08/05 06:18:57;;;;;;;12.70;11.40;;;;;-128.00;-1.00;19.71;78.67;100146.95;96816;1176;85594;-65
2021/08/05 06:21:06;;;;;;;12.40;10.10;;;;;-128.00;-1.00;19.85;78.08;100139.17;96811;1176;74566;-60
2021/08/05 06:23:15;;;;;;;12.30;11.10;;;;;-128.00;-1.00;19.78;77.75;100144.00;96639;1177;80165;-59
2021/08/05 06:25:24;;;;;;;12.60;11.30;;;;;-128.00;-1.00;19.62;77.17;100144.90;96604;1177;67407;-63
2021/08/05 06:27:33;;;;;;;12.20;11.10;;;;;-128.00;-1.00;19.38;77.47;100136.93;96660;1177;68291;-63
2021/08/05 06:29:42;;;;;;;11.80;10.60;;;;;-128.00;-1.00;19.18;77.34;100136.60;96576;1177;85897;-62
2021/08/05 06:31:51;;;;;;;11.70;10.50;;;;;-128.00;-1.00;19.04;77.27;100134.45;96596;1179;75152;-62
2021/08/05 06:34:00;;;;;;;11.60;10.00;;;;;-128.00;-1.00;18.92;77.49;100129.10;96820;1181;80535;-62
2021/08/05 06:36:10;;;;;;;11.50;9.70;;;;;-128.00;-1.00;18.83;77.35;100125.95;96781;1176;65379;-60
2021/08/05 06:38:19;;;;;;;11.00;9.70;;;;;-128.00;-1.00;18.70;77.43;100126.30;96810;1176;69549;-60
2021/08/05 06:40:28;;;;;;;14.40;9.90;;;;;-128.00;-1.00;18.64;77.41;100131.92;96851;1176;85901;-64
2021/08/05 06:42:41;;;;;;;11.20;10.10;;;;;-128.00;-1.00;18.62;77.61;100125.88;96814;1176;74121;-61
2021/08/05 06:44:50;;;;;;;11.50;9.40;;;;;-128.00;-1.00;18.60;77.47;100117.06;96739;1177;81947;-60
2021/08/05 06:46:59;;;;;;;12.90;9.30;;;;;-128.00;-1.00;18.49;77.58;100126.17;96619;1177;68155;-60
2021/08/05 06:49:08;;;;;;;14.50;10.90;;;;;-128.00;-1.00;18.45;77.54;100122.26;96685;1177;67584;-58
2021/08/05 06:51:17;;;;;;;15.50;11.00;;;;;-128.00;-1.00;18.35;77.74;100128.36;96728;1176;85147;-59
2021/08/05 06:53:26;;;;;;;18.50;10.90;;;;;-128.00;-1.00;18.31;77.82;100118.17;96636;1177;74807;-60
2021/08/05 06:55:35;;;;;;;17.20;11.30;;;;;-128.00;-1.00;18.25;77.93;100120.83;96742;1177;81198;-59
2021/08/05 06:57:45;;;;;;;12.30;10.60;;;;;-128.00;-1.00;18.16;77.79;100113.25;96783;1176;68273;-58
2021/08/05 06:59:54;;;;;;;12.20;9.60;;;;;-128.00;-1.00;18.18;78.10;100120.13;96588;1176;68636;-64
2021/08/05 07:02:03;;;;;;;13.70;9.90;;;;;-128.00;-1.00;18.06;78.36;100115.80;96769;1176;84665;-62
2021/08/05 07:04:12;;;;;;;13.90;9.80;;;;;-128.00;-1.00;18.08;78.20;100117.22;96809;1176;73738;-63
2021/08/05 07:06:22;;;;;;;13.50;9.20;;;;;-128.00;-1.00;18.03;78.25;100113.56;96809;1176;81695;-62
2021/08/05 07:08:31;;;;;;;11.30;8.40;;;;;-128.00;-1.00;17.97;78.34;100118.09;96605;1177;69218;-60
2021/08/05 07:10:40;;;;;;;9.50;7.70;;;;;-128.00;-1.00;17.97;78.29;100114.53;96591;1177;68185;-62
2021/08/05 07:12:49;;;;;;;8.60;7.80;;;;;-128.00;-1.00;17.96;78.53;100116.45;96817;1176;84957;-62
2021/08/05 07:14:59;;;;;;;13.30;8.50;;;;;-128.00;-1.00;18.00;78.13;100112.14;96861;1177;74706;-61
2021/08/05 07:17:09;;;;;;;11.50;8.20;;;;;-128.00;-1.00;18.04;78.19;100113.33;96802;1176;80398;-61
2021/08/05 07:19:18;;;;;;;9.10;8.00;;;;;-128.00;-1.00;18.05;78.38;100116.88;96788;1176;68632;-62
2021/08/05 07:21:30;;;;;;;11.60;7.10;;;;;-128.00;-1.00;18.07;78.14;100101.91;96804;1176;68480;-61
2021/08/05 07:23:39;;;;;;;8.80;7.60;;;;;-128.00;-1.00;18.00;78.24;100111.31;96625;1177;85753;-62
2021/08/05 07:25:49;;;;;;;9.80;7.20;;;;;-128.00;-1.00;18.07;78.15;100101.08;96938;1176;74993;-62
2021/08/05 07:28:01;;;;;;;10.00;7.50;;;;;-128.00;-1.00;18.13;78.25;100106.38;96656;1176;81142;-62
2021/08/05 07:30:16;;;;;;;11.30;7.40;;;;;-128.00;-1.00;18.25;78.23;100103.58;96531;1177;65721;-60
2021/08/05 07:32:25;;;;;;;7.80;7.10;;;;;-128.00;-1.00;18.32;78.00;100100.70;96751;1176;68777;-61
2021/08/05 07:34:35;;;;;;;10.10;6.20;;;;;-128.00;-1.00;18.33;77.85;100103.17;96614;1177;85814;-60
2021/08/05 07:36:44;;;;;;;7.70;6.10;;;;;-128.00;-1.00;18.33;77.74;100105.08;96861;1176;74887;-61
2021/08/05 07:38:53;;;;;;;11.90;6.30;;;;;-128.00;-1.00;18.46;77.61;100096.58;96613;1177;80968;-64
2021/08/05 07:41:02;;;;;;;11.20;7.10;;;;;-128.00;-1.00;18.56;77.80;100105.81;96563;1177;65830;-61
2021/08/05 07:43:11;;;;;;;7.70;6.10;;;;;-128.00;-1.00;18.58;77.48;100100.07;96812;1176;67924;-60
2021/08/05 07:45:20;;;;;;;10.20;6.70;;;;;-128.00;-1.00;18.57;77.34;100099.23;96517;1177;86038;-60
2021/08/05 07:47:29;;;;;;;11.00;7.90;;;;;-128.00;-1.00;18.58;77.18;100094.59;96602;1177;73657;-60
2021/08/05 07:49:39;;;;;;;8.40;6.60;;;;;-128.00;-1.00;18.67;76.97;100087.64;96578;1177;81864;-60
2021/08/05 07:51:48;;;;;;;7.70;6.40;;;;;-128.00;-1.00;18.61;77.02;100092.20;96795;1176;65437;-60
2021/08/05 07:54:03;;;;;;;7.10;6.20;;;;;-128.00;-1.00;18.64;76.87;100082.67;96641;1177;69160;-61
2021/08/05 07:56:12;;;;;;;7.70;5.10;;;;;-128.00;-1.00;18.51;76.38;100083.01;96908;1176;84378;-60
2021/08/05 07:58:21;;;;;;;7.30;5.40;;;;;-128.00;-1.00;18.41;76.43;100090.99;96615;1177;74808;-61
2021/08/05 08:00:34;;;;;;;7.10;5.20;;;;;-128.00;-1.00;18.44;76.63;100079.56;96597;1179;80211;-60
2021/08/05 08:02:44;;;;;;;7.30;4.90;;;;;-128.00;-1.00;18.53;76.56;100089.89;96596;1177;67132;-60
2021/08/05 08:04:53;;;;;;;7.80;4.60;;;;;-128.00;-1.00;18.70;76.69;100081.67;96825;1176;69495;-61
2021/08/05 08:07:02;;;;;;;6.10;5.00;;;;;-128.00;-1.00;18.74;76.38;100080.91;96574;1177;85309;-61
2021/08/05 08:09:11;;;;;;;7.90;4.70;;;;;-128.00;-1.00;18.76;76.25;100077.95;96622;1176;74426;-62
2021/08/05 08:11:23;;;;;;;8.60;5.40;;;;;-128.00;-1.00;18.80;76.23;100079.92;96576;1177;79973;-61
2021/08/05 08:13:33;;;;;;;5.30;4.70;;;;;-128.00;-1.00;18.94;75.99;100077.66;96629;1177;67383;-61
2021/08/05 08:15:42;;;;;;;8.50;4.60;;;;;-128.00;-1.00;19.00;75.99;100073.92;96562;1177;67999;-61
2021/08/05 08:17:51;;;;;;;8.30;4.60;;;;;-128.00;-1.00;19.10;75.87;100071.31;96807;1176;85547;-62
2021/08/05 08:20:00;;;;;;;7.80;4.10;;;;;-128.00;-1.00;19.17;75.58;100079.36;96771;1176;75115;-61
2021/08/05 08:22:10;;;;;;;6.20;4.30;;;;;-128.00;-1.00;19.20;75.39;100073.38;96796;1176;81467;-61
2021/08/05 08:24:20;;;;;;;5.50;3.70;;;;;-128.00;-1.00;19.15;75.01;100078.76;96839;1176;65834;-62
2021/08/05 08:26:32;;;;;;;4.50;3.70;;;;;-128.00;-1.00;19.19;74.88;100078.02;96566;1176;67756;-61
2021/08/05 08:28:41;;;;;;;4.60;4.20;;;;;-128.00;-1.00;19.21;74.98;100075.84;96639;1176;84511;-60
2021/08/05 08:30:51;;;;;;;5.90;4.20;;;;;-128.00;-1.00;19.29;74.86;100072.67;96792;1176;74366;-60
2021/08/05 08:33:00;;;;;;;6.00;4.00;;;;;-128.00;-1.00;19.31;74.63;100067.75;96839;1176;80990;-61
2021/08/05 08:35:14;;;;;;;6.30;3.90;;;;;-128.00;-1.00;19.45;74.81;100064.69;96805;1176;68524;-62
2021/08/05 08:37:23;;;;;;;10.10;4.40;;;;;-128.00;-1.00;19.58;74.19;100067.03;96848;1176;69278;-61
2021/08/05 08:39:32;;;;;;;6.80;3.80;;;;;-128.00;-1.00;19.62;74.32;100059.94;96909;1177;86373;-61
2021/08/05 08:41:43;;;;;;;9.70;4.00;;;;;-128.00;-1.00;19.63;74.17;100065.18;96595;1177;75108;-58
2021/08/05 08:43:52;;;;;;;4.70;3.90;;;;;-128.00;-1.00;19.51;74.05;100069.13;96626;1177;80825;-59
2021/08/05 08:46:02;;;;;;;7.20;4.40;;;;;-128.00;-1.00;19.50;74.01;100059.27;96576;1177;65357;-66
2021/08/05 08:48:13;;;;;;;4.30;3.80;;;;;-128.00;-1.00;19.48;73.68;100064.16;96613;1177;67951;-67